createdAt,value
2018-12-07T00:00:29.814Z,101118.14
2018-12-07T00:02:58.456Z,101119.91
2018-12-07T00:05:27.068Z,101120.91
2018-12-07T00:07:56.876Z,101114.27
2018-12-07T00:10:25.507Z,101114.27
2018-12-07T00:12:54.143Z,101113.81
2018-12-07T00:15:22.789Z,101094.29
2018-12-07T00:17:51.427Z,101094.13
2018-12-07T00:20:20.047Z,101098.52
2018-12-07T00:22:48.674Z,101081.50
2018-12-07T00:25:17.292Z,101083.43
2018-12-07T00:27:45.907Z,101081.05
2018-12-07T00:30:14.521Z,101071.03
2018-12-07T00:32:43.138Z,101067.96
2018-12-07T00:35:11.786Z,101088.04
2018-12-07T00:37:40.402Z,101057.49
2018-12-07T00:40:09.034Z,101057.85
2018-12-07T00:42:37.658Z,101062.17
2018-12-07T00:45:06.828Z,101049.09
2018-12-07T00:47:35.494Z,101059.45
2018-12-07T00:50:04.363Z,101045.45
2018-12-07T00:52:32.982Z,101020.13
2018-12-07T00:55:01.640Z,101041.81
2018-12-07T00:57:30.265Z,101017.34
2018-12-07T00:59:58.866Z,101015.19
2018-12-07T01:02:27.506Z,101006.87
2018-12-07T01:04:56.131Z,101005.08
2018-12-07T01:07:24.756Z,101003.24
2018-12-07T01:09:53.371Z,101012.86
2018-12-07T01:12:21.992Z,100996.20
2018-12-07T01:14:50.614Z,100975.27
2018-12-07T01:17:19.242Z,100973.97
2018-12-07T01:19:47.889Z,100963.89
2018-12-07T01:22:16.499Z,100969.51
2018-12-07T01:24:45.119Z,100960.70
2018-12-07T01:27:13.729Z,100945.00
2018-12-07T01:29:42.367Z,100944.81
2018-12-07T01:32:11.004Z,100947.16
2018-12-07T01:34:39.622Z,100945.95
2018-12-07T01:37:08.235Z,100941.08
2018-12-07T01:39:36.839Z,100930.61
2018-12-07T01:42:05.713Z,100929.30
2018-12-07T01:44:34.407Z,100912.56
2018-12-07T01:47:03.061Z,100908.54
2018-12-07T01:49:31.683Z,100910.80
2018-12-07T01:52:00.290Z,100893.86
2018-12-07T01:54:28.935Z,100884.63
2018-12-07T01:56:57.554Z,100867.69
2018-12-07T01:59:26.187Z,100865.17
2018-12-07T02:01:54.777Z,100856.86
2018-12-07T02:04:23.413Z,100851.81
2018-12-07T02:06:52.042Z,100853.97
2018-12-07T02:09:20.638Z,100849.26
2018-12-07T02:11:49.254Z,100842.82
2018-12-07T02:14:17.873Z,100835.83
2018-12-07T02:16:46.485Z,100831.05
2018-12-07T02:19:15.095Z,100819.38
2018-12-07T02:21:43.715Z,100814.22
2018-12-07T02:24:12.366Z,100810.40
2018-12-07T02:26:40.990Z,100796.93
2018-12-07T02:29:09.650Z,100790.49
2018-12-07T02:31:38.282Z,100776.10
2018-12-07T02:34:06.955Z,100760.91
2018-12-07T02:36:35.594Z,100758.75
2018-12-07T02:39:05.686Z,100743.62
2018-12-07T02:41:34.344Z,100735.77
2018-12-07T02:44:03.002Z,100728.87
2018-12-07T02:46:31.647Z,100731.95
2018-12-07T02:49:00.289Z,100721.48
2018-12-07T02:51:28.914Z,100715.41
2018-12-07T02:53:57.586Z,100699.83
2018-12-07T02:56:26.257Z,100699.44
2018-12-07T02:58:54.873Z,100694.09
2018-12-07T03:01:23.570Z,100690.73
2018-12-07T03:03:52.238Z,100683.74
2018-12-07T03:06:20.910Z,100693.36
2018-12-07T03:08:49.530Z,100682.51
2018-12-07T03:11:18.177Z,100668.23
2018-12-07T03:13:46.810Z,100659.92
2018-12-07T03:16:15.566Z,100659.92
2018-12-07T03:18:44.196Z,100658.50
2018-12-07T03:21:12.859Z,100640.30
2018-12-07T03:23:41.510Z,100654.23
2018-12-07T03:26:10.163Z,100646.38
2018-12-07T03:28:38.774Z,100634.61
2018-12-07T03:31:07.411Z,100620.69
2018-12-07T03:33:36.035Z,100630.77
2018-12-07T03:36:05.050Z,100603.76
2018-12-07T03:38:33.673Z,100615.45
2018-12-07T03:41:02.438Z,100604.61
2018-12-07T03:43:31.078Z,100616.76
2018-12-07T03:45:59.712Z,100597.22
2018-12-07T03:48:28.363Z,100574.17
2018-12-07T03:50:57.014Z,100592.48
2018-12-07T03:53:25.804Z,100577.71
2018-12-07T03:55:55.720Z,100559.02
2018-12-07T03:58:24.387Z,100567.82
2018-12-07T04:00:53.031Z,100557.09
2018-12-07T04:03:21.686Z,100556.59
2018-12-07T04:05:50.335Z,100537.09
2018-12-07T04:08:18.968Z,100538.58
2018-12-07T04:10:47.635Z,100518.97
2018-12-07T04:13:16.279Z,100522.16
2018-12-07T04:15:44.934Z,100565.03
2018-12-07T04:18:13.603Z,100517.00
2018-12-07T04:20:42.250Z,100508.80
2018-12-07T04:23:10.890Z,100504.15
2018-12-07T04:25:39.524Z,100518.99
2018-12-07T04:28:08.151Z,100494.05
2018-12-07T04:30:36.795Z,100491.62
2018-12-07T04:33:05.558Z,100492.45
2018-12-07T04:35:34.239Z,100495.45
2018-12-07T04:38:02.869Z,100489.38
2018-12-07T04:40:31.538Z,100487.69
2018-12-07T04:43:00.206Z,100471.55
2018-12-07T04:45:28.847Z,100465.12
2018-12-07T04:47:57.528Z,100445.86
2018-12-07T04:50:26.187Z,100439.32
2018-12-07T04:52:54.806Z,100447.73
2018-12-07T04:55:23.446Z,100454.28
2018-12-07T04:57:52.079Z,100446.05
2018-12-07T05:00:20.752Z,100426.94
2018-12-07T05:02:49.371Z,100441.39
2018-12-07T05:05:18.165Z,100431.86
2018-12-07T05:07:46.817Z,100422.70
2018-12-07T05:10:15.463Z,100426.63
2018-12-07T05:12:44.162Z,100415.82
2018-12-07T05:15:13.353Z,100412.36
2018-12-07T05:17:42.133Z,100414.70
2018-12-07T05:20:10.759Z,100423.47
2018-12-07T05:22:39.408Z,100423.13
2018-12-07T05:25:09.637Z,100400.13
2018-12-07T05:27:38.297Z,100428.16
2018-12-07T05:30:07.966Z,100406.05
2018-12-07T05:32:36.598Z,100393.06
2018-12-07T05:35:05.638Z,100392.70
2018-12-07T05:37:34.251Z,100394.20
2018-12-07T05:40:02.882Z,100406.89
2018-12-07T05:42:31.620Z,100436.67
2018-12-07T05:45:00.322Z,100420.47
2018-12-07T05:47:28.951Z,100416.01
2018-12-07T05:49:57.548Z,100411.41
2018-12-07T05:52:26.186Z,100399.12
2018-12-07T05:54:54.835Z,100373.28
2018-12-07T05:57:23.520Z,100371.70
2018-12-07T05:59:52.137Z,100371.30
2018-12-07T06:02:20.792Z,100370.14
2018-12-07T06:04:50.398Z,100382.63
2018-12-07T06:07:19.026Z,100377.77
2018-12-07T06:09:47.915Z,100382.81
2018-12-07T06:12:16.573Z,100353.91
2018-12-07T06:14:45.218Z,100345.52
2018-12-07T06:17:13.894Z,100344.95
2018-12-07T06:19:42.520Z,100346.99
2018-12-07T06:22:11.149Z,100348.12
2018-12-07T06:24:39.763Z,100357.48
2018-12-07T06:27:08.430Z,100369.57
2018-12-07T06:29:37.130Z,100385.87
2018-12-07T06:32:06.409Z,100396.66
2018-12-07T06:34:35.063Z,100402.95
2018-12-07T06:37:03.707Z,100398.39
2018-12-07T06:39:32.338Z,100364.29
2018-12-07T06:42:00.958Z,100369.22
2018-12-07T06:44:29.593Z,100362.87
2018-12-07T06:46:58.235Z,100370.05
2018-12-07T06:49:26.868Z,100375.71
2018-12-07T06:51:55.515Z,100388.36
2018-12-07T06:54:24.162Z,100382.75
2018-12-07T06:56:52.798Z,100397.02
2018-12-07T06:59:21.442Z,100380.15
2018-12-07T07:01:50.090Z,100386.59
2018-12-07T07:04:18.722Z,100387.97
2018-12-07T07:06:47.380Z,100374.41
2018-12-07T07:09:16.085Z,100361.28
2018-12-07T07:11:44.713Z,100380.37
2018-12-07T07:14:13.362Z,100398.51
2018-12-07T07:16:41.998Z,100404.22
2018-12-07T07:19:10.642Z,100401.44
2018-12-07T07:21:39.272Z,100401.23
2018-12-07T07:24:07.922Z,100384.30
2018-12-07T07:26:36.564Z,100378.63
2018-12-07T07:29:05.474Z,100373.80
2018-12-07T07:31:34.095Z,100375.00
2018-12-07T07:34:02.706Z,100382.08
2018-12-07T07:36:31.330Z,100391.03
2018-12-07T07:38:59.958Z,100401.84
2018-12-07T07:41:28.692Z,100383.84
2018-12-07T07:43:57.391Z,100402.06
2018-12-07T07:46:26.017Z,100393.25
2018-12-07T07:48:55.103Z,100381.45
2018-12-07T07:51:23.754Z,100381.81
2018-12-07T07:53:52.379Z,100375.34
2018-12-07T07:56:21.130Z,100373.38
2018-12-07T07:58:49.783Z,100366.19
2018-12-07T08:01:18.445Z,100368.80
2018-12-07T08:03:47.094Z,100372.80
2018-12-07T08:06:15.752Z,100369.80
2018-12-07T08:08:44.386Z,100376.86
2018-12-07T08:11:13.032Z,100380.38
2018-12-07T08:13:41.699Z,100373.13
2018-12-07T08:16:10.321Z,100385.81
2018-12-07T08:18:38.944Z,100380.60
2018-12-07T08:21:07.650Z,100383.08
2018-12-07T08:23:36.302Z,100388.19
2018-12-07T08:26:05.002Z,100403.09
2018-12-07T08:28:33.654Z,100398.48
2018-12-07T08:31:02.366Z,100393.95
2018-12-07T08:33:31.035Z,100397.24
2018-12-07T08:35:59.708Z,100391.94
2018-12-07T08:38:28.343Z,100392.16
2018-12-07T08:40:56.995Z,100400.44
2018-12-07T08:43:25.702Z,100394.61
2018-12-07T08:45:54.490Z,100392.36
2018-12-07T08:48:23.116Z,100391.91
2018-12-07T08:50:51.883Z,100403.08
2018-12-07T08:53:20.546Z,100394.34
2018-12-07T08:55:49.194Z,100403.08
2018-12-07T08:58:17.826Z,100403.53
2018-12-07T09:00:47.222Z,100407.83
2018-12-07T09:03:15.861Z,100404.77
2018-12-07T09:05:44.510Z,100406.91
2018-12-07T09:08:15.321Z,100404.96
2018-12-07T09:10:43.829Z,100403.59
2018-12-07T09:13:12.570Z,100397.77
2018-12-07T09:15:41.218Z,100409.67
2018-12-07T09:18:09.847Z,100397.69
2018-12-07T09:20:38.489Z,100410.48
2018-12-07T09:23:07.144Z,100400.54
2018-12-07T09:25:35.863Z,100400.30
2018-12-07T09:28:04.615Z,100393.91
2018-12-07T09:30:33.240Z,100395.95
2018-12-07T09:33:01.869Z,100434.95
2018-12-07T09:35:30.473Z,100452.27
2018-12-07T09:37:59.114Z,100460.64
2018-12-07T09:40:27.780Z,100442.77
2018-12-07T09:42:56.413Z,100448.48
2018-12-07T09:45:25.075Z,100427.92
2018-12-07T09:47:53.742Z,100423.95
2018-12-07T09:50:22.413Z,100422.95
2018-12-07T09:52:51.046Z,100422.81
2018-12-07T09:55:19.692Z,100433.21
2018-12-07T09:57:48.346Z,100447.52
2018-12-07T10:00:16.998Z,100450.42
2018-12-07T10:02:45.655Z,100455.69
2018-12-07T10:05:14.323Z,100483.93
2018-12-07T10:07:43.006Z,100481.55
2018-12-07T10:10:11.667Z,100475.94
2018-12-07T10:12:40.866Z,100485.36
2018-12-07T10:15:09.501Z,100472.95
2018-12-07T10:17:38.143Z,100456.91
2018-12-07T10:20:06.950Z,100440.77
2018-12-07T10:22:35.593Z,100455.77
2018-12-07T10:25:04.568Z,100468.00
2018-12-07T10:27:33.243Z,100466.01
2018-12-07T10:30:01.883Z,100457.21
2018-12-07T10:32:30.569Z,100468.16
2018-12-07T10:34:59.322Z,100481.33
2018-12-07T10:37:27.984Z,100474.08
2018-12-07T10:39:56.698Z,100488.90
2018-12-07T10:42:25.383Z,100488.15
2018-12-07T10:44:54.075Z,100487.45
2018-12-07T10:47:22.752Z,100495.11
2018-12-07T10:49:51.532Z,100521.88
2018-12-07T10:52:20.170Z,100510.39
2018-12-07T10:54:48.832Z,100505.42
2018-12-07T10:57:17.477Z,100513.39
2018-12-07T10:59:46.924Z,100516.53
2018-12-07T11:02:20.872Z,100516.59
2018-12-07T11:04:54.736Z,100527.88
2018-12-07T11:07:28.606Z,100512.15
2018-12-07T11:10:02.359Z,100509.59
2018-12-07T11:12:36.073Z,100503.31
2018-12-07T11:15:10.130Z,100512.57
2018-12-07T11:17:43.815Z,100531.85
2018-12-07T11:20:17.623Z,100528.70
2018-12-07T11:22:51.477Z,100530.84
2018-12-07T11:25:25.315Z,100544.27
2018-12-07T11:27:59.082Z,100537.30
2018-12-07T11:30:31.848Z,100533.39
2018-12-07T11:33:05.744Z,100535.91
2018-12-07T11:35:37.587Z,100532.75
2018-12-07T11:38:06.255Z,100558.94
2018-12-07T11:40:34.887Z,100537.38
2018-12-07T11:43:03.553Z,100545.44
2018-12-07T11:45:32.350Z,100557.62
2018-12-07T11:48:01.118Z,100542.98
2018-12-07T11:50:29.788Z,100547.36
2018-12-07T11:52:58.547Z,100549.89
2018-12-07T11:55:27.211Z,100554.58
2018-12-07T11:57:55.898Z,100546.13
2018-12-07T12:00:24.566Z,100568.13
2018-12-07T12:02:54.216Z,100563.84
2018-12-07T12:05:22.893Z,100560.78
2018-12-07T12:07:51.535Z,100580.61
2018-12-07T12:10:20.251Z,100569.58
2018-12-07T12:12:49.490Z,100573.47
2018-12-07T12:15:18.144Z,100581.97
2018-12-07T12:17:46.814Z,100579.20
2018-12-07T12:20:15.521Z,100569.48
2018-12-07T12:22:44.167Z,100569.63
2018-12-07T12:25:12.964Z,100573.84
2018-12-07T12:27:41.609Z,100568.19
2018-12-07T12:30:10.271Z,100569.70
2018-12-07T12:32:38.924Z,100570.47
2018-12-07T12:35:08.006Z,100599.87
2018-12-07T12:37:36.663Z,100576.77
2018-12-07T12:40:05.369Z,100576.13
2018-12-07T12:42:34.007Z,100575.45
2018-12-07T12:45:02.795Z,100574.39
2018-12-07T12:47:31.761Z,100588.41
2018-12-07T12:50:00.542Z,100600.19
2018-12-07T12:52:29.395Z,100604.20
2018-12-07T12:54:58.121Z,100587.18
2018-12-07T12:57:26.886Z,100583.06
2018-12-07T12:59:55.530Z,100587.37
2018-12-07T13:02:24.274Z,100581.61
2018-12-07T13:04:52.969Z,100559.33
2018-12-07T13:07:21.631Z,100574.50
2018-12-07T13:09:50.278Z,100572.95
2018-12-07T13:12:18.934Z,100586.58
2018-12-07T13:14:47.600Z,100579.45
2018-12-07T13:17:16.276Z,100583.00
2018-12-07T13:19:44.920Z,100582.91
2018-12-07T13:22:13.578Z,100573.65
2018-12-07T13:24:42.802Z,100597.63
2018-12-07T13:27:12.774Z,100590.97
2018-12-07T13:29:41.675Z,100615.81
2018-12-07T13:32:10.291Z,100583.73
2018-12-07T13:34:39.475Z,100589.17
2018-12-07T13:37:08.128Z,100597.58
2018-12-07T13:39:38.074Z,100595.66
2018-12-07T13:42:08.417Z,100602.30
2018-12-07T13:44:37.228Z,100619.65
2018-12-07T13:47:16.873Z,100617.13
2018-12-07T13:49:45.716Z,100598.59
2018-12-07T13:52:14.605Z,100605.63
2018-12-07T13:54:43.540Z,100604.72
2018-12-07T13:57:12.981Z,100673.03
2018-12-07T13:59:41.726Z,100606.59
2018-12-07T14:02:10.530Z,100598.23
2018-12-07T14:04:39.440Z,100611.11
2018-12-07T14:07:08.349Z,100603.23
2018-12-07T14:09:37.267Z,100613.66
2018-12-07T14:12:05.935Z,100617.26
2018-12-07T14:14:34.835Z,100597.44
2018-12-07T14:17:03.607Z,100608.44
2018-12-07T14:19:33.081Z,100626.80
2018-12-07T14:22:02.511Z,100601.69
2018-12-07T14:24:31.644Z,100616.39
2018-12-07T14:27:00.449Z,100621.99
2018-12-07T14:29:30.188Z,100608.50
2018-12-07T14:31:59.023Z,100601.54
2018-12-07T14:34:28.657Z,100605.39
2018-12-07T14:36:57.366Z,100624.96
2018-12-07T14:39:27.581Z,100601.18
2018-12-07T14:41:57.081Z,100601.69
2018-12-07T14:44:25.857Z,100623.49
2018-12-07T14:46:55.005Z,100633.59
2018-12-07T14:49:24.252Z,100598.47
2018-12-07T14:51:53.111Z,100596.80
2018-12-07T14:54:21.851Z,100586.70
2018-12-07T14:56:50.620Z,100598.77
2018-12-07T14:59:19.719Z,100594.36
2018-12-07T15:01:48.937Z,100607.83
2018-12-07T15:04:17.775Z,100606.84
2018-12-07T15:06:46.727Z,100623.80
2018-12-07T15:09:15.593Z,100651.27
2018-12-07T15:11:44.668Z,100645.30
2018-12-07T15:14:13.813Z,100611.88
2018-12-07T15:16:43.152Z,100610.27
2018-12-07T15:19:12.533Z,100619.42
2018-12-07T15:21:42.227Z,100615.02
2018-12-07T15:24:11.292Z,100636.73
2018-12-07T15:26:41.421Z,100617.62
2018-12-07T15:29:10.548Z,100620.27
2018-12-07T15:31:39.511Z,100636.96
2018-12-07T15:34:08.965Z,100650.61
2018-12-07T15:36:37.891Z,100649.05
2018-12-07T15:39:08.891Z,100667.17
2018-12-07T15:41:38.651Z,100656.36
2018-12-07T15:44:08.348Z,100649.81
2018-12-07T15:46:37.689Z,100653.84
2018-12-07T15:49:06.522Z,100696.73
2018-12-07T15:51:35.983Z,100670.69
2018-12-07T15:54:04.936Z,100671.91
2018-12-07T15:56:34.696Z,100686.20
2018-12-07T15:59:03.749Z,100677.23
2018-12-07T16:01:32.489Z,100681.27
2018-12-07T16:04:01.442Z,100663.45
2018-12-07T16:06:30.504Z,100675.36
2018-12-07T16:08:59.963Z,100663.27
2018-12-07T16:11:28.860Z,100639.28
2018-12-07T16:13:57.738Z,100675.01
2018-12-07T16:16:27.977Z,100683.30
2018-12-07T16:18:56.640Z,100692.86
2018-12-07T16:21:25.345Z,100704.38
2018-12-07T16:23:54.238Z,100726.70
2018-12-07T16:26:23.021Z,100714.81
2018-12-07T16:28:51.790Z,100735.95
2018-12-07T16:31:20.627Z,100740.99
2018-12-07T16:33:49.418Z,100750.49
2018-12-07T16:36:18.217Z,100739.75
2018-12-07T16:38:47.305Z,100748.19
2018-12-07T16:41:16.261Z,100749.16
2018-12-07T16:43:45.221Z,100759.23
2018-12-07T16:46:13.952Z,100761.83
2018-12-07T16:48:42.696Z,100761.38
2018-12-07T16:51:11.630Z,100750.91
2018-12-07T16:53:40.356Z,100750.79
2018-12-07T16:56:09.034Z,100802.17
2018-12-07T16:58:37.791Z,100753.46
2018-12-07T17:01:06.527Z,100761.45
2018-12-07T17:03:35.265Z,100780.69
2018-12-07T17:06:04.127Z,100783.41
2018-12-07T17:08:32.957Z,100752.37
2018-12-07T17:11:01.600Z,100785.87
2018-12-07T17:13:30.693Z,100789.15
2018-12-07T17:15:59.388Z,100787.64
2018-12-07T17:18:28.039Z,100794.38
2018-12-07T17:20:56.934Z,100783.41
2018-12-07T17:23:25.870Z,100787.57
2018-12-07T17:25:54.689Z,100815.20
2018-12-07T17:28:23.588Z,100787.28
2018-12-07T17:30:52.325Z,100798.35
2018-12-07T17:33:21.030Z,100842.93
2018-12-07T17:35:49.688Z,100826.23
2018-12-07T17:38:18.601Z,100814.07
2018-12-07T17:40:47.535Z,100808.67
2018-12-07T17:43:16.311Z,100821.88
2018-12-07T17:45:45.016Z,100805.39
2018-12-07T17:48:15.620Z,100803.48
2018-12-07T17:50:44.471Z,100802.38
2018-12-07T17:53:13.264Z,100822.91
2018-12-07T17:55:42.213Z,100818.36
2018-12-07T17:58:11.039Z,100809.44
2018-12-07T18:00:40.432Z,100797.39
2018-12-07T18:03:09.194Z,100825.11
2018-12-07T18:05:38.243Z,100834.08
2018-12-07T18:08:06.997Z,100828.88
2018-12-07T18:10:35.714Z,100831.88
2018-12-07T18:13:04.684Z,100836.23
2018-12-07T18:15:33.651Z,100823.76
2018-12-07T18:18:02.485Z,100821.97
2018-12-07T18:20:31.284Z,100827.70
2018-12-07T18:23:00.100Z,100849.95
2018-12-07T18:25:29.077Z,100840.31
2018-12-07T18:27:57.743Z,100837.13
2018-12-07T18:30:26.363Z,100832.11
2018-12-07T18:32:55.106Z,100830.23
2018-12-07T18:35:23.731Z,100861.32
2018-12-07T18:37:52.584Z,100842.39
2018-12-07T18:40:21.346Z,100860.41
2018-12-07T18:42:50.214Z,100899.62
2018-12-07T18:45:19.320Z,100857.17
2018-12-07T18:47:48.989Z,100868.22
2018-12-07T18:50:17.921Z,100863.67
2018-12-07T18:52:46.805Z,100856.23
2018-12-07T18:55:15.873Z,100859.83
2018-12-07T18:57:44.978Z,100871.95
2018-12-07T19:00:13.925Z,100880.93
2018-12-07T19:02:43.673Z,100884.70
2018-12-07T19:05:12.486Z,100883.15
2018-12-07T19:07:41.422Z,100890.70
2018-12-07T19:10:10.320Z,100878.39
2018-12-07T19:12:39.106Z,100880.83
2018-12-07T19:15:08.803Z,100894.92
2018-12-07T19:17:39.701Z,100885.20
2018-12-07T19:20:09.726Z,100906.97
2018-12-07T19:22:38.682Z,100893.82
2018-12-07T19:25:08.380Z,100882.14
2018-12-07T19:27:37.338Z,100901.72
2018-12-07T19:30:14.527Z,100884.52
2018-12-07T19:32:39.449Z,100908.84
2018-12-07T19:35:08.261Z,100887.84
2018-12-07T19:37:37.295Z,100892.97
2018-12-07T19:40:06.863Z,100878.95
2018-12-07T19:42:35.549Z,100878.83
2018-12-07T19:45:05.117Z,100881.95
2018-12-07T19:47:33.891Z,100894.34
2018-12-07T19:50:03.624Z,100914.04
2018-12-07T19:52:32.727Z,100888.70
2018-12-07T19:55:01.792Z,100891.66
2018-12-07T19:57:30.556Z,100947.22
2018-12-07T19:59:59.225Z,100948.19
2018-12-07T20:02:27.991Z,100934.12
2018-12-07T20:04:56.881Z,100888.36
2018-12-07T20:07:25.651Z,100881.59
2018-12-07T20:09:54.521Z,100876.86
2018-12-07T20:12:23.277Z,100894.30
2018-12-07T20:14:52.022Z,100888.29
2018-12-07T20:17:20.923Z,100882.13
2018-12-07T20:19:49.837Z,100882.79
2018-12-07T20:22:19.306Z,100886.49
2018-12-07T20:24:48.137Z,100879.77
2018-12-07T20:27:16.944Z,100872.11
2018-12-07T20:29:45.647Z,100884.86
2018-12-07T20:32:14.458Z,100880.28
2018-12-07T20:34:43.200Z,100878.78
2018-12-07T20:37:12.056Z,100892.84
2018-12-07T20:39:41.167Z,100884.11
2018-12-07T20:42:10.196Z,100881.39
2018-12-07T20:44:38.971Z,100879.00
2018-12-07T20:47:08.051Z,100869.25
2018-12-07T20:49:36.941Z,100865.30
2018-12-07T20:52:06.135Z,100871.68
2018-12-07T20:54:35.090Z,100871.92
2018-12-07T20:57:03.766Z,100902.55
2018-12-07T20:59:32.411Z,100906.48
2018-12-07T21:02:01.147Z,100886.70
2018-12-07T21:04:39.973Z,100875.78
2018-12-07T21:07:43.718Z,100896.24
2018-12-07T21:11:22.730Z,100889.25
2018-12-07T21:14:59.004Z,100903.47
2018-12-07T21:17:34.308Z,100907.45
2018-12-07T21:20:18.700Z,100901.77
2018-12-07T21:22:47.468Z,100903.47
2018-12-07T21:25:16.333Z,100907.70
2018-12-07T21:27:45.282Z,100887.23
2018-12-07T21:33:12.888Z,100896.49
2018-12-07T21:36:32.662Z,100957.42
2018-12-07T21:39:01.381Z,100908.23
2018-12-07T21:41:30.223Z,100904.95
2018-12-07T21:43:59.150Z,100900.03
2018-12-07T21:46:28.140Z,100910.67
2018-12-07T21:48:57.336Z,100907.95
2018-12-07T21:51:38.129Z,100911.73
2018-12-07T21:54:06.844Z,100938.91
2018-12-07T21:56:35.578Z,100899.77
2018-12-07T21:59:04.817Z,100915.63
2018-12-07T22:01:33.691Z,100908.67
2018-12-07T22:04:02.448Z,100919.40
2018-12-07T22:06:31.966Z,100912.37
2018-12-07T22:09:01.670Z,100908.74
2018-12-07T22:11:30.397Z,100915.57
2018-12-07T22:14:00.013Z,100905.94
2018-12-07T22:16:28.743Z,100916.66
2018-12-07T22:18:57.494Z,100908.94
2018-12-07T22:21:26.401Z,100899.39
2018-12-07T22:23:55.310Z,100912.72
2018-12-07T22:26:24.463Z,100921.16
2018-12-07T22:28:53.333Z,100916.65
2018-12-07T22:31:22.080Z,100939.94
2018-12-07T22:33:50.872Z,100908.22
2018-12-07T22:36:19.840Z,100942.73
2018-12-07T22:38:48.678Z,100935.78
2018-12-07T22:41:17.381Z,100948.55
2018-12-07T22:43:46.042Z,100951.28
2018-12-07T22:46:14.934Z,100941.90
2018-12-07T22:48:45.667Z,100961.53
2018-12-07T22:51:14.402Z,100955.03
2018-12-07T22:53:43.089Z,100964.55
2018-12-07T22:56:11.757Z,100946.73
2018-12-07T22:58:40.379Z,100945.75
2018-12-07T23:01:09.879Z,100943.84
2018-12-07T23:03:38.533Z,100933.31
2018-12-07T23:06:07.218Z,100913.74
2018-12-07T23:08:35.955Z,100935.65
2018-12-07T23:11:04.618Z,100958.63
2018-12-07T23:13:33.294Z,100935.78
2018-12-07T23:16:01.951Z,100936.44
2018-12-07T23:18:30.640Z,100945.14
2018-12-07T23:20:59.258Z,100962.05
2018-12-07T23:23:27.901Z,100935.59
2018-12-07T23:25:56.545Z,100958.55
2018-12-07T23:28:25.249Z,100957.25
2018-12-07T23:30:53.879Z,100941.64
2018-12-07T23:33:22.514Z,100985.34
2018-12-07T23:35:51.151Z,100954.00
2018-12-07T23:38:19.763Z,100957.77
2018-12-07T23:40:48.393Z,100949.06
2018-12-07T23:43:17.156Z,100962.53
2018-12-07T23:45:45.778Z,100957.77
2018-12-07T23:48:14.443Z,100952.16
2018-12-07T23:50:43.105Z,100948.74
2018-12-07T23:53:11.734Z,100918.02
2018-12-07T23:55:40.404Z,100956.20
2018-12-07T23:58:09.069Z,100978.31
